Aviation Digital Data Service (ADDS)

Output produced by METARs form (1209 UTC 15 November 2018)
found at http://www.aviationweather.gov/metar/data/
 
DAUA 151200Z 29005KT CAVOK 25/04 Q1015
TAF DAUA 151100Z 1512/1612 29008KT CAVOK
       
DABB 151200Z 05003KT 9999 FEW023 SCT100 BKN200 21/16 Q1016
TAF DABB 151100Z 1512/1612 06012KT 9999 FEW030 SCT200 
     PROB40 
     TEMPO 1512/1516 FEW026CB 
     PROB40 
     TEMPO 1516/1522 5000 -TSRA FEW023CB BKN100 
     BECMG 1521/1523 35008KT 
     PROB40 
     TEMPO 1600/1608 2000 BR BKN010
       
DABT 151200Z 06009KT 9999 SCT023 BKN033 14/07 Q1018
TAF DABT 151100Z 1512/1612 14013KT 9999 FEW026 BKN030 
     PROB40 
     TEMPO 1512/1520 5000 -TSRA FEW023CB 
     BECMG 1521/1523 29008KT 
     TEMPO 1600/1609 2000 BR BKN010 
     PROB40 
     TEMPO 1601/1607 0300 FG 
     BECMG 1610/1612 08012KT
       
DAOR 151200Z 36007KT 6000 NSC 20/07 Q1016
TAF DAOR 151100Z 1512/1521 01008KT 6000 NSC 
     PROB40 1512/1515 3000 DU
       
DAAE 151200Z 23005KT 8000 FEW023 SCT040 BKN090 20/13 Q1016
TAF DAAE 151100Z 1512/1612 20011KT 9999 FEW026 BKN100 
     TEMPO 1512/1521 5000 -TSRA FEW023CB BKN030 
     BECMG 1521/1523 01008KT 
     PROB40 
     TEMPO 1600/1608 2000 BR BKN010
       
DAUB 151200Z 11024KT 5000 SCT040 23/12 Q1015
TAF DAUB 151100Z 1512/1612 13018KT 6000 FEW026TCU SCT040 
     PROB40 
     TEMPO 1512/1524 13020G30KT 2000 DRSA NSC 
     PROB30 
     TEMPO 1512/1518 5000 -TSRA FEW040CB 
     BECMG 1600/1602 35009KT FEW040
       
TAF DATM 151100Z 1512/1521 13008KT CAVOK
       
DAAD 151200Z 14016KT 8000 SCT030 20/09 Q1017
TAF DAAD 151100Z 1512/1521 12008KT 8000 FEW023 SCT030 BKN080 
     PROB40 
     TEMPO 1512/1516 12015G30KT 5000 -TSRA FEW023CB 
     BECMG 1518/1521 VRB02KT
       
DAOI 151200Z 06004KT 9999 FEW023 21/16 Q1015
TAF DAOI 151100Z 1512/1612 VRB02KT 9999 SCT026 SCT100 
     PROB40 
     TEMPO 1514/1522 6000 RA SCT023TCU FEW030CB 
     BECMG 1610/1612 01010KT
       
DABC 151200Z 14005KT 110V170 9999 SCT030 BKN100 17/08 Q1019
TAF DABC 150500Z 1506/1606 14008KT 9999 FEW033 SCT033 
     TEMPO 1506/1508 2000 BR SCT008 
     PROB30 
     TEMPO 1508/1515 FEW026CB
       
DAAG 151200Z 06004KT 9999 FEW020 BKN110 21/13 Q1016
TAF DAAG 151100Z 1512/1612 14008KT 9999 FEW020 BKN110 
     TEMPO 1512/1520 FEW030CB 
     PROB30 
     TEMPO 1512/1516 14015G30KT -TSRA FEW026CB
       
DAAJ 151200Z 27008KT CAVOK 23/05 Q1021
TAF DAAJ 151100Z 1512/1612 28006KT CAVOK
       
DAUO 150836Z 09017KT 2500 DRSA FEW033CB SCT100 18/11 Q1017
TAF DAUO 151100Z 1512/1521 10015KT 6000 FEW030 SCT033 
     TEMPO 1512/1518 12015G25KT 2000 DRSA 
     PROB40 
     TEMPO 1512/1515 12020G30KT 0800 BLSA FEW030CB
       
DAUG 151200Z 00000KT 6000 NSC 21/06 Q1013
TAF DAUG 151100Z 1512/1612 07008KT 6000 NSC 
     PROB40 1512/1520 4000 HZ 
     PROB30 
     TEMPO 1602/1606 BKN015 
     BECMG 1517/1521 35010KT
       
DAUH 151200Z 17012KT 5000 NSC 28/13 Q1013
TAF DAUH 151100Z 1512/1612 20012KT 6000 NSC 
     PROB40 
     TEMPO 1512/1516 23015G52KT 4000 DRSA 
     BECMG 1520/1522 VRB02KT 
     BECMG 1606/1609 30010KT
       
DAAP 151200Z 02006KT CAVOK 30/04 Q1017
TAF DAAP 151100Z 1512/1521 13008KT CAVOK 
     PROB30 1513/1517 5000 HZ
       
DAUZ 151200Z 13012KT 7000 NSC 24/04 Q1018
TAF DAUZ 151100Z 1512/1612 13012KT 7000 NSC 
     PROB40 
     TEMPO 1512/1517 15015G25KT 4000 DRSA 
     BECMG 1507/1511 28008KT
       
TAF DAUI 151100Z 1512/1612 24010KT CAVOK 
     PROB30 
     TEMPO 1513/1517 24020KT 5000 DRSA 
     BECMG 1518/1522 VRB02KT
       
DAAV 151200Z 05002KT 9999 FEW023 SCT033 BKN090 22/15 Q1015
TAF DAAV 151100Z 1512/1612 33011KT 9999 FEW026 BKN100 
     PROB40 
     TEMPO 1512/1521 5000 -TSRA FEW023CB BKN030 
     BECMG 1521/1523 24008KT 
     PROB40 
     TEMPO 1600/1608 2000 BR BKN010
       
TAF DAUL 151100Z 1512/1521 08015KT 8000 FEW016 BKN026 
     PROB30 
     TEMPO 1512/1515 08015G30KT 4000 DRSA 
     BECMG 1518/1521 VRB02KT
       
DAOV 151200Z 00000KT 9999 FEW026 19/12 Q1015
TAF DAOV 151100Z 1512/1521 VRB02KT 8000 SCT026 SCT100 
     PROB40 
     TEMPO 1515/1521 5000 RA SCT020TCU BKN026
       
DAAY 151200Z 01008KT 7000 SCT016 SCT026 13/08 Q1019
TAF DAAY 151100Z 1512/1521 35008KT 7000 SCT016 SCT026
       
DAOO 151200Z 16002KT 9999 FEW023 22/13 Q1015
TAF DAOO 150500Z 1506/1606 0601010KT 9999 FEW016 SCT030 
     BECMG 1509/1512 28010KT 9999 SCT026 
     BECMG 1516/1519 VRB02KT 8000 SCT010 SCT026
       
DAOL 151200Z 30004KT 8000 FEW026 20/14 Q1015
TAF DAUU 151100Z 1512/1521 09012KT 7000 NSC 
     PROB40 
     TEMPO 1512/1515 14015G25KT 3000 DRSA
       
DAAS 151200Z 04011KT 9999 FEW010 BKN026 14/05 Q1019
TAF DAAS 151100Z 1512/1612 30012KT 9999 FEW026 BKN030 
     TEMPO 1512/1521 5000 -TSRA FEW023CB 
     BECMG 1521/1523 02008KT 
     TEMPO 1600/1609 2000 BR BKN010 
     PROB40 
     TEMPO 1601/1607 0300 FG
       
DAAT 151200Z 31010KT CAVOK 26/M05 Q1022
TAF DAAT 151100Z 1512/1612 29008KT CAVOK
       
DABS 151200Z 14008KT 9999 BKN033 SCT100 16/09 Q1021
TAF DABS 151100Z 1512/1612 16013KT 9999 FEW026 SCT100 
     PROB30 
     TEMPO 1512/1519 5000 RA FEW023CB 
     BECMG 1520/1522 09008KT 
     TEMPO 1600/1609 2000 BR BKN010 
     PROB40 
     TEMPO 1601/1607 0300 FG
       
DAOB 151200Z 09013KT 9999 BKN023 15/11 Q1017
TAF DAOB 151100Z 1512/1612 09008KT 9999 SCT023 
     PROB40 
     TEMPO 1512/1518 11015G25KT FEW026CB 
     PROB40 1520/1607 3000 BR BKN015 
     PROB30 
     TEMPO 1600/1606 0900 FG BKN010
       
DAFH 151200Z 12016KT 8000 DRSA SCT030 17/09 Q1015
TAF DAFH 151100Z 1512/1521 12020KT 6000 SCT030 
     PROB40 1512/1514 3000 DRSA 
     BECMG 1514/1516 04010KT
       
TAF DAUT 151100Z 1512/1521 27008KT 9000 NSC 
     PROB30 1513/1516 5000 HZ
       
DAOF 151200Z 13003KT CAVOK 22/05 Q1015
TAF DAOF 151100Z 1512/1521 30005KT CAVOK
       
DAON 151200Z 03003KT 9999 FEW026 20/12 Q1015
TAF DAON 151100Z 1512/1612 VRB02KT 9999 FEW026 
     BECMG 1515/1517 SCT010 SCT020 
     PROB30 
     TEMPO 1516/1522 6000 RA 
     BECMG 1610/1612 02010KT FEW026
       
DAUK 151050Z 10016KT 4000 DRSA SCT033 SCT100 22/11 Q1014
TAF DAUK 151100Z 1512/1521 10012KT 6000 SCT033 SCT100 
     TEMPO 1512/1515 10015G25KT 3000 DRSA FEW030CB